sensor_id;sensor_type;location;lat;lon;timestamp;P1;durP1;ratioP1;P2;durP2;ratioP2
39968;SDS011;25648;47.808;19.004;2022-11-02T00:02:11;21.95;;;12.75;;
39968;SDS011;25648;47.808;19.004;2022-11-02T00:04:37;21.95;;;11.18;;
39968;SDS011;25648;47.808;19.004;2022-11-02T00:07:03;20.20;;;11.77;;
39968;SDS011;25648;47.808;19.004;2022-11-02T00:09:28;21.77;;;11.77;;
39968;SDS011;25648;47.808;19.004;2022-11-02T00:11:54;24.38;;;12.23;;
39968;SDS011;25648;47.808;19.004;2022-11-02T00:14:20;22.50;;;13.48;;
39968;SDS011;25648;47.808;19.004;2022-11-02T00:16:45;26.42;;;13.75;;
39968;SDS011;25648;47.808;19.004;2022-11-02T00:19:11;23.35;;;13.73;;
39968;SDS011;25648;47.808;19.004;2022-11-02T00:21:37;27.60;;;14.82;;
39968;SDS011;25648;47.808;19.004;2022-11-02T00:24:03;28.63;;;14.00;;
39968;SDS011;25648;47.808;19.004;2022-11-02T00:26:30;25.08;;;14.57;;
39968;SDS011;25648;47.808;19.004;2022-11-02T00:28:58;27.42;;;15.48;;
39968;SDS011;25648;47.808;19.004;2022-11-02T00:31:24;26.75;;;16.05;;
39968;SDS011;25648;47.808;19.004;2022-11-02T00:33:50;27.88;;;14.73;;
39968;SDS011;25648;47.808;19.004;2022-11-02T00:36:16;25.85;;;14.65;;
39968;SDS011;25648;47.808;19.004;2022-11-02T00:38:41;26.48;;;14.82;;
39968;SDS011;25648;47.808;19.004;2022-11-02T00:41:07;30.48;;;15.93;;
39968;SDS011;25648;47.808;19.004;2022-11-02T00:43:33;24.05;;;14.93;;
39968;SDS011;25648;47.808;19.004;2022-11-02T00:45:59;27.27;;;15.95;;
39968;SDS011;25648;47.808;19.004;2022-11-02T00:48:25;28.63;;;15.57;;
39968;SDS011;25648;47.808;19.004;2022-11-02T00:50:51;26.33;;;15.80;;
39968;SDS011;25648;47.808;19.004;2022-11-02T00:53:16;25.70;;;16.05;;
39968;SDS011;25648;47.808;19.004;2022-11-02T00:55:42;24.42;;;14.13;;
39968;SDS011;25648;47.808;19.004;2022-11-02T00:58:08;24.92;;;14.93;;
39968;SDS011;25648;47.808;19.004;2022-11-02T01:00:34;28.88;;;16.67;;
39968;SDS011;25648;47.808;19.004;2022-11-02T01:03:00;24.73;;;15.18;;
39968;SDS011;25648;47.808;19.004;2022-11-02T01:05:26;27.77;;;16.63;;
39968;SDS011;25648;47.808;19.004;2022-11-02T01:07:52;27.58;;;16.48;;
39968;SDS011;25648;47.808;19.004;2022-11-02T01:10:18;31.42;;;16.13;;
39968;SDS011;25648;47.808;19.004;2022-11-02T01:12:43;27.88;;;15.77;;
39968;SDS011;25648;47.808;19.004;2022-11-02T01:15:09;28.35;;;16.60;;
39968;SDS011;25648;47.808;19.004;2022-11-02T01:17:35;28.42;;;15.65;;
39968;SDS011;25648;47.808;19.004;2022-11-02T01:20:01;29.13;;;15.55;;
39968;SDS011;25648;47.808;19.004;2022-11-02T01:22:27;25.60;;;15.70;;
39968;SDS011;25648;47.808;19.004;2022-11-02T01:24:55;31.45;;;16.70;;
39968;SDS011;25648;47.808;19.004;2022-11-02T01:27:21;24.95;;;15.57;;
39968;SDS011;25648;47.808;19.004;2022-11-02T01:29:46;28.98;;;16.08;;
39968;SDS011;25648;47.808;19.004;2022-11-02T01:32:12;27.83;;;16.83;;
39968;SDS011;25648;47.808;19.004;2022-11-02T01:34:38;27.48;;;16.25;;
39968;SDS011;25648;47.808;19.004;2022-11-02T01:37:03;29.50;;;17.00;;
39968;SDS011;25648;47.808;19.004;2022-11-02T01:39:29;30.60;;;17.60;;
39968;SDS011;25648;47.808;19.004;2022-11-02T01:41:55;30.70;;;16.88;;
39968;SDS011;25648;47.808;19.004;2022-11-02T01:44:27;29.60;;;15.88;;
39968;SDS011;25648;47.808;19.004;2022-11-02T01:46:57;28.15;;;17.48;;
39968;SDS011;25648;47.808;19.004;2022-11-02T01:49:47;30.25;;;17.67;;
39968;SDS011;25648;47.808;19.004;2022-11-02T01:52:20;29.55;;;17.27;;
39968;SDS011;25648;47.808;19.004;2022-11-02T01:54:54;29.60;;;17.90;;
39968;SDS011;25648;47.808;19.004;2022-11-02T01:57:26;26.92;;;16.98;;
39968;SDS011;25648;47.808;19.004;2022-11-02T01:59:55;31.17;;;17.88;;
39968;SDS011;25648;47.808;19.004;2022-11-02T02:02:28;32.63;;;17.58;;
39968;SDS011;25648;47.808;19.004;2022-11-02T02:05:12;29.50;;;18.17;;
39968;SDS011;25648;47.808;19.004;2022-11-02T02:07:40;28.92;;;17.77;;
39968;SDS011;25648;47.808;19.004;2022-11-02T02:10:06;30.83;;;18.65;;
39968;SDS011;25648;47.808;19.004;2022-11-02T02:12:33;32.53;;;18.58;;
39968;SDS011;25648;47.808;19.004;2022-11-02T02:15:01;28.15;;;17.55;;
39968;SDS011;25648;47.808;19.004;2022-11-02T02:30:27;28.83;;;17.70;;
39968;SDS011;25648;47.808;19.004;2022-11-02T02:33:08;32.70;;;18.55;;
39968;SDS011;25648;47.808;19.004;2022-11-02T02:35:39;31.13;;;18.15;;
39968;SDS011;25648;47.808;19.004;2022-11-02T02:38:07;30.02;;;18.15;;
39968;SDS011;25648;47.808;19.004;2022-11-02T02:40:39;27.92;;;17.38;;
39968;SDS011;25648;47.808;19.004;2022-11-02T02:43:56;29.40;;;17.48;;
39968;SDS011;25648;47.808;19.004;2022-11-02T02:46:27;33.25;;;18.45;;
39968;SDS011;25648;47.808;19.004;2022-11-02T02:48:54;28.38;;;15.98;;
39968;SDS011;25648;47.808;19.004;2022-11-02T02:51:24;30.35;;;18.23;;
39968;SDS011;25648;47.808;19.004;2022-11-02T02:53:59;33.58;;;18.23;;
39968;SDS011;25648;47.808;19.004;2022-11-02T02:56:29;34.38;;;18.40;;
39968;SDS011;25648;47.808;19.004;2022-11-02T03:01:56;29.08;;;17.40;;
39968;SDS011;25648;47.808;19.004;2022-11-02T03:04:23;32.80;;;18.00;;
39968;SDS011;25648;47.808;19.004;2022-11-02T03:06:51;30.38;;;18.17;;
39968;SDS011;25648;47.808;19.004;2022-11-02T03:14:55;28.05;;;17.92;;
39968;SDS011;25648;47.808;19.004;2022-11-02T03:18:02;31.73;;;17.70;;
39968;SDS011;25648;47.808;19.004;2022-11-02T03:21:49;36.70;;;18.40;;
39968;SDS011;25648;47.808;19.004;2022-11-02T03:27:33;31.55;;;18.50;;
39968;SDS011;25648;47.808;19.004;2022-11-02T03:32:35;31.88;;;18.17;;
39968;SDS011;25648;47.808;19.004;2022-11-02T03:35:24;36.45;;;20.38;;
39968;SDS011;25648;47.808;19.004;2022-11-02T03:38:09;35.78;;;20.20;;
39968;SDS011;25648;47.808;19.004;2022-11-02T03:40:42;36.33;;;21.58;;
39968;SDS011;25648;47.808;19.004;2022-11-02T03:43:11;35.80;;;19.83;;
39968;SDS011;25648;47.808;19.004;2022-11-02T03:45:39;34.65;;;19.85;;
39968;SDS011;25648;47.808;19.004;2022-11-02T03:48:08;34.67;;;20.30;;
39968;SDS011;25648;47.808;19.004;2022-11-02T03:50:37;36.47;;;20.23;;
39968;SDS011;25648;47.808;19.004;2022-11-02T03:53:09;34.15;;;20.42;;
39968;SDS011;25648;47.808;19.004;2022-11-02T03:56:01;35.83;;;20.25;;
39968;SDS011;25648;47.808;19.004;2022-11-02T03:58:31;35.50;;;20.00;;
39968;SDS011;25648;47.808;19.004;2022-11-02T04:00:58;37.42;;;21.02;;
39968;SDS011;25648;47.808;19.004;2022-11-02T04:03:27;37.38;;;21.27;;
39968;SDS011;25648;47.808;19.004;2022-11-02T04:05:56;48.05;;;21.40;;
39968;SDS011;25648;47.808;19.004;2022-11-02T04:08:24;36.30;;;21.77;;
39968;SDS011;25648;47.808;19.004;2022-11-02T04:10:54;39.63;;;22.17;;
39968;SDS011;25648;47.808;19.004;2022-11-02T04:13:38;32.25;;;19.23;;
39968;SDS011;25648;47.808;19.004;2022-11-02T04:16:22;35.83;;;21.35;;
39968;SDS011;25648;47.808;19.004;2022-11-02T04:18:48;34.97;;;21.20;;
39968;SDS011;25648;47.808;19.004;2022-11-02T04:21:32;37.42;;;22.00;;
39968;SDS011;25648;47.808;19.004;2022-11-02T04:23:58;34.17;;;20.77;;
39968;SDS011;25648;47.808;19.004;2022-11-02T04:26:42;34.95;;;20.88;;
39968;SDS011;25648;47.808;19.004;2022-11-02T04:29:08;31.10;;;19.75;;
39968;SDS011;25648;47.808;19.004;2022-11-02T04:31:34;37.88;;;21.73;;
39968;SDS011;25648;47.808;19.004;2022-11-02T04:33:59;37.92;;;21.85;;
39968;SDS011;25648;47.808;19.004;2022-11-02T04:36:27;33.65;;;19.10;;
39968;SDS011;25648;47.808;19.004;2022-11-02T04:38:54;38.17;;;20.58;;
39968;SDS011;25648;47.808;19.004;2022-11-02T04:41:20;35.65;;;21.02;;
39968;SDS011;25648;47.808;19.004;2022-11-02T04:44:06;34.88;;;21.52;;
39968;SDS011;25648;47.808;19.004;2022-11-02T04:46:33;35.03;;;21.60;;
39968;SDS011;25648;47.808;19.004;2022-11-02T04:49:00;40.00;;;21.95;;
39968;SDS011;25648;47.808;19.004;2022-11-02T04:51:28;36.97;;;22.02;;
39968;SDS011;25648;47.808;19.004;2022-11-02T04:53:57;36.67;;;21.58;;
39968;SDS011;25648;47.808;19.004;2022-11-02T04:56:24;34.53;;;21.52;;
39968;SDS011;25648;47.808;19.004;2022-11-02T04:58:51;36.58;;;21.10;;
39968;SDS011;25648;47.808;19.004;2022-11-02T05:01:21;46.60;;;29.20;;
39968;SDS011;25648;47.808;19.004;2022-11-02T05:03:49;53.75;;;31.85;;
39968;SDS011;25648;47.808;19.004;2022-11-02T05:06:16;49.58;;;28.90;;
39968;SDS011;25648;47.808;19.004;2022-11-02T05:08:42;44.72;;;26.55;;
39968;SDS011;25648;47.808;19.004;2022-11-02T05:11:09;42.00;;;24.58;;
39968;SDS011;25648;47.808;19.004;2022-11-02T05:13:36;39.28;;;22.60;;
39968;SDS011;25648;47.808;19.004;2022-11-02T05:16:03;37.65;;;23.38;;
39968;SDS011;25648;47.808;19.004;2022-11-02T05:18:29;36.97;;;22.95;;
39968;SDS011;25648;47.808;19.004;2022-11-02T05:20:57;47.67;;;26.02;;
39968;SDS011;25648;47.808;19.004;2022-11-02T05:23:23;43.83;;;26.08;;
39968;SDS011;25648;47.808;19.004;2022-11-02T05:25:53;35.72;;;21.65;;
39968;SDS011;25648;47.808;19.004;2022-11-02T05:28:39;41.63;;;23.80;;
39968;SDS011;25648;47.808;19.004;2022-11-02T05:31:05;38.47;;;22.92;;
39968;SDS011;25648;47.808;19.004;2022-11-02T05:33:31;36.30;;;22.38;;
39968;SDS011;25648;47.808;19.004;2022-11-02T05:35:57;44.78;;;24.52;;
39968;SDS011;25648;47.808;19.004;2022-11-02T05:38:24;40.63;;;22.55;;
39968;SDS011;25648;47.808;19.004;2022-11-02T05:40:53;37.85;;;22.40;;
39968;SDS011;25648;47.808;19.004;2022-11-02T05:43:20;37.53;;;22.45;;
39968;SDS011;25648;47.808;19.004;2022-11-02T05:45:50;35.53;;;22.23;;
39968;SDS011;25648;47.808;19.004;2022-11-02T05:48:20;37.60;;;21.52;;
39968;SDS011;25648;47.808;19.004;2022-11-02T05:50:47;39.80;;;23.33;;
39968;SDS011;25648;47.808;19.004;2022-11-02T05:53:13;38.05;;;21.45;;
39968;SDS011;25648;47.808;19.004;2022-11-02T05:55:39;34.15;;;21.05;;
39968;SDS011;25648;47.808;19.004;2022-11-02T05:58:05;35.05;;;21.58;;
39968;SDS011;25648;47.808;19.004;2022-11-02T06:00:30;35.38;;;21.65;;
39968;SDS011;25648;47.808;19.004;2022-11-02T06:02:56;39.47;;;22.77;;
39968;SDS011;25648;47.808;19.004;2022-11-02T06:05:23;40.22;;;22.38;;
39968;SDS011;25648;47.808;19.004;2022-11-02T06:07:49;37.53;;;21.58;;
39968;SDS011;25648;47.808;19.004;2022-11-02T06:10:15;32.65;;;20.48;;
39968;SDS011;25648;47.808;19.004;2022-11-02T06:12:42;34.85;;;20.70;;
39968;SDS011;25648;47.808;19.004;2022-11-02T06:15:08;36.05;;;21.30;;
39968;SDS011;25648;47.808;19.004;2022-11-02T06:17:38;34.75;;;20.02;;
39968;SDS011;25648;47.808;19.004;2022-11-02T06:20:05;34.42;;;20.50;;
39968;SDS011;25648;47.808;19.004;2022-11-02T06:22:37;35.88;;;20.95;;
39968;SDS011;25648;47.808;19.004;2022-11-02T06:25:06;32.70;;;19.75;;
39968;SDS011;25648;47.808;19.004;2022-11-02T06:27:32;32.50;;;20.08;;
39968;SDS011;25648;47.808;19.004;2022-11-02T06:29:59;30.27;;;19.83;;
39968;SDS011;25648;47.808;19.004;2022-11-02T06:32:24;34.58;;;21.75;;
39968;SDS011;25648;47.808;19.004;2022-11-02T06:34:50;31.25;;;20.30;;
39968;SDS011;25648;47.808;19.004;2022-11-02T06:37:16;37.95;;;21.38;;
39968;SDS011;25648;47.808;19.004;2022-11-02T06:39:41;32.97;;;20.38;;
39968;SDS011;25648;47.808;19.004;2022-11-02T06:42:07;35.15;;;25.73;;
39968;SDS011;25648;47.808;19.004;2022-11-02T06:44:32;34.38;;;21.33;;
39968;SDS011;25648;47.808;19.004;2022-11-02T06:46:58;35.17;;;21.00;;
39968;SDS011;25648;47.808;19.004;2022-11-02T06:49:24;34.22;;;20.55;;
39968;SDS011;25648;47.808;19.004;2022-11-02T06:51:50;30.60;;;19.45;;
39968;SDS011;25648;47.808;19.004;2022-11-02T06:54:15;32.40;;;18.98;;
39968;SDS011;25648;47.808;19.004;2022-11-02T06:56:41;27.13;;;17.58;;
39968;SDS011;25648;47.808;19.004;2022-11-02T06:59:07;29.67;;;19.35;;
39968;SDS011;25648;47.808;19.004;2022-11-02T07:01:33;29.08;;;18.30;;
39968;SDS011;25648;47.808;19.004;2022-11-02T07:03:59;27.80;;;17.83;;
39968;SDS011;25648;47.808;19.004;2022-11-02T07:06:25;28.33;;;18.17;;
39968;SDS011;25648;47.808;19.004;2022-11-02T07:08:51;29.77;;;18.67;;
39968;SDS011;25648;47.808;19.004;2022-11-02T07:11:17;29.90;;;18.08;;
39968;SDS011;25648;47.808;19.004;2022-11-02T07:13:42;27.48;;;18.40;;
39968;SDS011;25648;47.808;19.004;2022-11-02T07:16:08;26.05;;;17.65;;
39968;SDS011;25648;47.808;19.004;2022-11-02T07:18:34;28.08;;;17.65;;
39968;SDS011;25648;47.808;19.004;2022-11-02T07:21:00;26.45;;;17.23;;
39968;SDS011;25648;47.808;19.004;2022-11-02T07:23:26;28.73;;;16.80;;
39968;SDS011;25648;47.808;19.004;2022-11-02T07:25:52;25.00;;;16.08;;
39968;SDS011;25648;47.808;19.004;2022-11-02T07:28:18;26.73;;;16.08;;
39968;SDS011;25648;47.808;19.004;2022-11-02T07:30:44;27.38;;;16.63;;
39968;SDS011;25648;47.808;19.004;2022-11-02T07:33:10;25.83;;;16.58;;
39968;SDS011;25648;47.808;19.004;2022-11-02T07:35:36;27.80;;;16.50;;
39968;SDS011;25648;47.808;19.004;2022-11-02T07:38:03;24.60;;;16.67;;
39968;SDS011;25648;47.808;19.004;2022-11-02T07:40:30;24.13;;;16.15;;
39968;SDS011;25648;47.808;19.004;2022-11-02T07:42:57;30.88;;;17.00;;
39968;SDS011;25648;47.808;19.004;2022-11-02T07:45:24;27.92;;;16.95;;
39968;SDS011;25648;47.808;19.004;2022-11-02T07:47:50;34.28;;;17.75;;
39968;SDS011;25648;47.808;19.004;2022-11-02T07:50:17;27.42;;;16.88;;
39968;SDS011;25648;47.808;19.004;2022-11-02T07:52:51;26.42;;;16.02;;
39968;SDS011;25648;47.808;19.004;2022-11-02T07:55:19;24.55;;;16.48;;
39968;SDS011;25648;47.808;19.004;2022-11-02T07:58:02;23.90;;;15.85;;
39968;SDS011;25648;47.808;19.004;2022-11-02T08:00:31;30.55;;;17.80;;
39968;SDS011;25648;47.808;19.004;2022-11-02T08:03:01;27.88;;;16.17;;
39968;SDS011;25648;47.808;19.004;2022-11-02T08:05:35;27.80;;;17.10;;
39968;SDS011;25648;47.808;19.004;2022-11-02T08:08:06;28.33;;;17.90;;
39968;SDS011;25648;47.808;19.004;2022-11-02T08:11:02;25.63;;;17.00;;
39968;SDS011;25648;47.808;19.004;2022-11-02T08:15:57;23.85;;;15.65;;
39968;SDS011;25648;47.808;19.004;2022-11-02T08:18:24;27.70;;;16.65;;
39968;SDS011;25648;47.808;19.004;2022-11-02T08:20:53;25.17;;;17.10;;
39968;SDS011;25648;47.808;19.004;2022-11-02T08:23:19;27.70;;;16.35;;
39968;SDS011;25648;47.808;19.004;2022-11-02T08:25:46;25.00;;;16.55;;
39968;SDS011;25648;47.808;19.004;2022-11-02T08:28:14;27.23;;;17.17;;
39968;SDS011;25648;47.808;19.004;2022-11-02T08:30:43;25.45;;;15.57;;
39968;SDS011;25648;47.808;19.004;2022-11-02T08:33:10;26.60;;;16.67;;
39968;SDS011;25648;47.808;19.004;2022-11-02T08:35:39;23.42;;;16.05;;
39968;SDS011;25648;47.808;19.004;2022-11-02T08:38:06;28.75;;;17.10;;
39968;SDS011;25648;47.808;19.004;2022-11-02T08:40:33;25.90;;;16.25;;
39968;SDS011;25648;47.808;19.004;2022-11-02T08:42:59;25.75;;;16.48;;
39968;SDS011;25648;47.808;19.004;2022-11-02T08:45:30;26.55;;;16.95;;
39968;SDS011;25648;47.808;19.004;2022-11-02T08:47:57;25.67;;;16.65;;
39968;SDS011;25648;47.808;19.004;2022-11-02T08:50:26;26.23;;;16.38;;
39968;SDS011;25648;47.808;19.004;2022-11-02T08:52:52;27.75;;;17.40;;
39968;SDS011;25648;47.808;19.004;2022-11-02T08:55:19;27.27;;;16.80;;
39968;SDS011;25648;47.808;19.004;2022-11-02T08:57:49;25.13;;;16.98;;
39968;SDS011;25648;47.808;19.004;2022-11-02T09:00:17;27.08;;;17.63;;
39968;SDS011;25648;47.808;19.004;2022-11-02T09:02:56;29.77;;;17.02;;
39968;SDS011;25648;47.808;19.004;2022-11-02T09:05:34;25.10;;;14.75;;
39968;SDS011;25648;47.808;19.004;2022-11-02T09:08:05;26.05;;;15.95;;
39968;SDS011;25648;47.808;19.004;2022-11-02T09:10:34;25.08;;;16.42;;
39968;SDS011;25648;47.808;19.004;2022-11-02T09:13:02;21.98;;;15.32;;
39968;SDS011;25648;47.808;19.004;2022-11-02T09:15:29;28.70;;;17.65;;
39968;SDS011;25648;47.808;19.004;2022-11-02T09:17:55;25.30;;;17.77;;
39968;SDS011;25648;47.808;19.004;2022-11-02T09:20:20;23.70;;;16.52;;
39968;SDS011;25648;47.808;19.004;2022-11-02T09:22:47;25.88;;;16.63;;
39968;SDS011;25648;47.808;19.004;2022-11-02T09:25:13;27.50;;;16.88;;
39968;SDS011;25648;47.808;19.004;2022-11-02T09:27:39;23.30;;;16.30;;
39968;SDS011;25648;47.808;19.004;2022-11-02T09:30:06;26.52;;;16.40;;
39968;SDS011;25648;47.808;19.004;2022-11-02T09:32:32;25.65;;;16.48;;
39968;SDS011;25648;47.808;19.004;2022-11-02T09:35:08;27.60;;;16.85;;
39968;SDS011;25648;47.808;19.004;2022-11-02T09:37:35;25.25;;;16.77;;
39968;SDS011;25648;47.808;19.004;2022-11-02T09:40:02;25.83;;;16.88;;
39968;SDS011;25648;47.808;19.004;2022-11-02T09:45:17;23.17;;;16.70;;
39968;SDS011;25648;47.808;19.004;2022-11-02T09:47:46;27.30;;;16.13;;
39968;SDS011;25648;47.808;19.004;2022-11-02T09:50:20;24.90;;;16.08;;
39968;SDS011;25648;47.808;19.004;2022-11-02T09:52:55;23.48;;;16.30;;
39968;SDS011;25648;47.808;19.004;2022-11-02T09:55:27;24.65;;;16.08;;
39968;SDS011;25648;47.808;19.004;2022-11-02T09:57:58;24.88;;;15.60;;
39968;SDS011;25648;47.808;19.004;2022-11-02T10:00:28;23.25;;;14.82;;
39968;SDS011;25648;47.808;19.004;2022-11-02T10:10:52;21.48;;;15.25;;
39968;SDS011;25648;47.808;19.004;2022-11-02T10:18:34;24.45;;;14.70;;
39968;SDS011;25648;47.808;19.004;2022-11-02T10:21:11;22.48;;;14.18;;
39968;SDS011;25648;47.808;19.004;2022-11-02T10:23:40;27.52;;;15.82;;
39968;SDS011;25648;47.808;19.004;2022-11-02T10:26:20;27.17;;;16.27;;
39968;SDS011;25648;47.808;19.004;2022-11-02T10:28:59;24.10;;;15.45;;
39968;SDS011;25648;47.808;19.004;2022-11-02T10:31:34;22.58;;;15.82;;
39968;SDS011;25648;47.808;19.004;2022-11-02T10:34:08;23.33;;;15.30;;
39968;SDS011;25648;47.808;19.004;2022-11-02T10:36:55;21.48;;;15.07;;
39968;SDS011;25648;47.808;19.004;2022-11-02T10:47:51;24.75;;;16.73;;
39968;SDS011;25648;47.808;19.004;2022-11-02T10:53:38;27.30;;;17.92;;
39968;SDS011;25648;47.808;19.004;2022-11-02T10:58:49;26.33;;;16.52;;
39968;SDS011;25648;47.808;19.004;2022-11-02T11:01:23;87.00;;;78.50;;
39968;SDS011;25648;47.808;19.004;2022-11-02T11:03:57;28.63;;;19.33;;
39968;SDS011;25648;47.808;19.004;2022-11-02T11:06:45;28.80;;;17.48;;
39968;SDS011;25648;47.808;19.004;2022-11-02T11:09:15;24.92;;;16.63;;
39968;SDS011;25648;47.808;19.004;2022-11-02T11:11:54;29.17;;;17.70;;
39968;SDS011;25648;47.808;19.004;2022-11-02T11:14:25;24.65;;;18.35;;
39968;SDS011;25648;47.808;19.004;2022-11-02T11:16:57;25.92;;;19.42;;
39968;SDS011;25648;47.808;19.004;2022-11-02T11:19:35;26.67;;;18.15;;
39968;SDS011;25648;47.808;19.004;2022-11-02T11:22:49;29.60;;;18.92;;
39968;SDS011;25648;47.808;19.004;2022-11-02T11:24:53;35.65;;;25.17;;
39968;SDS011;25648;47.808;19.004;2022-11-02T11:27:49;29.58;;;20.27;;
39968;SDS011;25648;47.808;19.004;2022-11-02T11:30:22;28.75;;;20.98;;
39968;SDS011;25648;47.808;19.004;2022-11-02T11:32:48;32.25;;;22.42;;
39968;SDS011;25648;47.808;19.004;2022-11-02T11:35:14;28.83;;;19.45;;
39968;SDS011;25648;47.808;19.004;2022-11-02T11:37:47;25.42;;;17.63;;
39968;SDS011;25648;47.808;19.004;2022-11-02T11:40:19;24.85;;;16.83;;
39968;SDS011;25648;47.808;19.004;2022-11-02T11:42:49;25.55;;;17.85;;
39968;SDS011;25648;47.808;19.004;2022-11-02T11:45:21;27.42;;;17.55;;
39968;SDS011;25648;47.808;19.004;2022-11-02T11:47:57;25.63;;;17.48;;
39968;SDS011;25648;47.808;19.004;2022-11-02T11:50:44;22.05;;;16.95;;
39968;SDS011;25648;47.808;19.004;2022-11-02T11:55:50;25.08;;;17.73;;
39968;SDS011;25648;47.808;19.004;2022-11-02T12:01:00;24.25;;;17.13;;
39968;SDS011;25648;47.808;19.004;2022-11-02T12:03:28;31.08;;;20.92;;
39968;SDS011;25648;47.808;19.004;2022-11-02T12:14:08;28.60;;;17.92;;
39968;SDS011;25648;47.808;19.004;2022-11-02T12:25:14;21.58;;;15.25;;
39968;SDS011;25648;47.808;19.004;2022-11-02T12:39:05;20.88;;;14.82;;
39968;SDS011;25648;47.808;19.004;2022-11-02T12:44:47;20.17;;;14.02;;
39968;SDS011;25648;47.808;19.004;2022-11-02T12:50:02;20.70;;;13.20;;
39968;SDS011;25648;47.808;19.004;2022-11-02T12:55:12;18.80;;;13.07;;
39968;SDS011;25648;47.808;19.004;2022-11-02T12:57:44;17.40;;;12.23;;
39968;SDS011;25648;47.808;19.004;2022-11-02T13:00:18;18.08;;;12.57;;
39968;SDS011;25648;47.808;19.004;2022-11-02T13:02:56;20.40;;;13.50;;
39968;SDS011;25648;47.808;19.004;2022-11-02T13:05:31;22.83;;;15.02;;
39968;SDS011;25648;47.808;19.004;2022-11-02T13:08:13;23.80;;;16.23;;
39968;SDS011;25648;47.808;19.004;2022-11-02T13:10:53;18.70;;;13.10;;
39968;SDS011;25648;47.808;19.004;2022-11-02T13:13:27;19.40;;;12.45;;
39968;SDS011;25648;47.808;19.004;2022-11-02T13:16:08;18.75;;;12.50;;
39968;SDS011;25648;47.808;19.004;2022-11-02T13:18:43;19.88;;;12.38;;
39968;SDS011;25648;47.808;19.004;2022-11-02T13:21:14;20.75;;;12.43;;
39968;SDS011;25648;47.808;19.004;2022-11-02T13:23:44;17.42;;;11.07;;
39968;SDS011;25648;47.808;19.004;2022-11-02T13:29:10;20.00;;;13.40;;
39968;SDS011;25648;47.808;19.004;2022-11-02T13:32:02;21.48;;;12.65;;
39968;SDS011;25648;47.808;19.004;2022-11-02T13:34:40;23.60;;;12.40;;
39968;SDS011;25648;47.808;19.004;2022-11-02T13:40:07;16.73;;;11.07;;
39968;SDS011;25648;47.808;19.004;2022-11-02T13:43:01;15.27;;;11.27;;
39968;SDS011;25648;47.808;19.004;2022-11-02T13:46:01;17.80;;;11.25;;
39968;SDS011;25648;47.808;19.004;2022-11-02T13:51:35;18.25;;;11.73;;
39968;SDS011;25648;47.808;19.004;2022-11-02T13:56:58;14.25;;;11.20;;
39968;SDS011;25648;47.808;19.004;2022-11-02T13:59:30;16.33;;;12.05;;
39968;SDS011;25648;47.808;19.004;2022-11-02T14:02:01;19.33;;;11.07;;
39968;SDS011;25648;47.808;19.004;2022-11-02T14:04:37;21.80;;;10.23;;
39968;SDS011;25648;47.808;19.004;2022-11-02T14:07:05;16.27;;;10.07;;
39968;SDS011;25648;47.808;19.004;2022-11-02T14:30:56;8.55;;;5.85;;
39968;SDS011;25648;47.808;19.004;2022-11-02T14:33:42;8.65;;;4.90;;
39968;SDS011;25648;47.808;19.004;2022-11-02T14:47:18;10.20;;;5.50;;
39968;SDS011;25648;47.808;19.004;2022-11-02T14:49:51;10.18;;;5.15;;
39968;SDS011;25648;47.808;19.004;2022-11-02T15:00:02;11.23;;;6.03;;
39968;SDS011;25648;47.808;19.004;2022-11-02T15:02:40;9.43;;;6.03;;
39968;SDS011;25648;47.808;19.004;2022-11-02T15:05:08;14.20;;;5.95;;
39968;SDS011;25648;47.808;19.004;2022-11-02T15:07:51;7.57;;;5.32;;
39968;SDS011;25648;47.808;19.004;2022-11-02T15:15:42;8.73;;;5.22;;
39968;SDS011;25648;47.808;19.004;2022-11-02T15:20:49;15.25;;;8.45;;
39968;SDS011;25648;47.808;19.004;2022-11-02T15:26:59;10.63;;;5.80;;
39968;SDS011;25648;47.808;19.004;2022-11-02T15:31:56;11.52;;;6.28;;
39968;SDS011;25648;47.808;19.004;2022-11-02T15:34:26;11.75;;;5.97;;
39968;SDS011;25648;47.808;19.004;2022-11-02T15:37:03;21.98;;;11.88;;
39968;SDS011;25648;47.808;19.004;2022-11-02T15:39:31;15.25;;;9.48;;
39968;SDS011;25648;47.808;19.004;2022-11-02T15:47:41;10.20;;;6.65;;
39968;SDS011;25648;47.808;19.004;2022-11-02T16:01:30;13.18;;;7.57;;
39968;SDS011;25648;47.808;19.004;2022-11-02T16:03:57;13.15;;;7.85;;
39968;SDS011;25648;47.808;19.004;2022-11-02T16:06:30;14.52;;;8.85;;
39968;SDS011;25648;47.808;19.004;2022-11-02T16:09:00;13.43;;;7.97;;
39968;SDS011;25648;47.808;19.004;2022-11-02T16:11:27;11.77;;;7.95;;
39968;SDS011;25648;47.808;19.004;2022-11-02T16:14:04;15.02;;;7.10;;
39968;SDS011;25648;47.808;19.004;2022-11-02T16:16:48;10.95;;;7.38;;
39968;SDS011;25648;47.808;19.004;2022-11-02T16:19:20;12.48;;;8.00;;
39968;SDS011;25648;47.808;19.004;2022-11-02T16:21:46;12.65;;;7.18;;
39968;SDS011;25648;47.808;19.004;2022-11-02T16:24:13;12.15;;;7.28;;
39968;SDS011;25648;47.808;19.004;2022-11-02T16:26:40;11.20;;;7.20;;
39968;SDS011;25648;47.808;19.004;2022-11-02T16:29:07;12.43;;;8.15;;
39968;SDS011;25648;47.808;19.004;2022-11-02T16:31:34;14.50;;;10.10;;
39968;SDS011;25648;47.808;19.004;2022-11-02T16:34:00;11.23;;;8.43;;
39968;SDS011;25648;47.808;19.004;2022-11-02T16:36:30;14.52;;;8.70;;
39968;SDS011;25648;47.808;19.004;2022-11-02T16:41:36;13.32;;;7.68;;
39968;SDS011;25648;47.808;19.004;2022-11-02T16:44:07;11.10;;;7.18;;
39968;SDS011;25648;47.808;19.004;2022-11-02T16:49:25;17.35;;;11.45;;
39968;SDS011;25648;47.808;19.004;2022-11-02T16:51:53;17.92;;;12.93;;
39968;SDS011;25648;47.808;19.004;2022-11-02T16:57:17;13.18;;;8.65;;
39968;SDS011;25648;47.808;19.004;2022-11-02T16:59:49;14.57;;;9.25;;
39968;SDS011;25648;47.808;19.004;2022-11-02T17:02:16;14.23;;;8.82;;
39968;SDS011;25648;47.808;19.004;2022-11-02T17:04:48;14.75;;;9.60;;
39968;SDS011;25648;47.808;19.004;2022-11-02T17:07:21;17.42;;;9.45;;
39968;SDS011;25648;47.808;19.004;2022-11-02T17:09:52;15.35;;;10.00;;
39968;SDS011;25648;47.808;19.004;2022-11-02T17:12:22;15.13;;;10.10;;
39968;SDS011;25648;47.808;19.004;2022-11-02T17:15:15;17.42;;;9.60;;
39968;SDS011;25648;47.808;19.004;2022-11-02T17:17:48;20.20;;;11.45;;
39968;SDS011;25648;47.808;19.004;2022-11-02T17:20:19;70.55;;;42.63;;
39968;SDS011;25648;47.808;19.004;2022-11-02T17:22:51;40.28;;;24.67;;
39968;SDS011;25648;47.808;19.004;2022-11-02T17:25:20;17.38;;;11.38;;
39968;SDS011;25648;47.808;19.004;2022-11-02T17:27:53;18.50;;;9.77;;
39968;SDS011;25648;47.808;19.004;2022-11-02T17:30:38;17.58;;;10.40;;
39968;SDS011;25648;47.808;19.004;2022-11-02T17:33:18;15.98;;;9.85;;
39968;SDS011;25648;47.808;19.004;2022-11-02T17:35:55;15.25;;;9.48;;
39968;SDS011;25648;47.808;19.004;2022-11-02T17:38:29;14.30;;;9.10;;
39968;SDS011;25648;47.808;19.004;2022-11-02T17:40:55;17.77;;;9.82;;
39968;SDS011;25648;47.808;19.004;2022-11-02T17:43:23;16.33;;;10.43;;
39968;SDS011;25648;47.808;19.004;2022-11-02T17:45:53;58.30;;;45.78;;